Кучка

Карта отелей и гостиниц, располагающихся рядом с аэропортом Кучка :

Кучка Марий Эл 56° 56' 29.58" N, 48° 1' 20.748" E
Код аэродрома ИКАО
ZE45
Код аэродрома RU
ЗЕ45
Координаты
N56.94155° E048.02243°
Превышение над уровнем моря
143
Основная полоса
07/25
Курс магнитный
071,1/251,1
Длина основной ВПП
420
Ширина основной ВПП
18
Покрытие основной ВПП
Твёрдое (асфальт)
Освещение ВПП
Нет
Тип: 
Аэродром
Класс аэродрома: 
Принадлежность: 
ГА
Статус: 
Недействующий
Сайт: 
E-mail аэродрома: 
Страна: 
Россия
Регион: 
Марий Эл
Город: 
Дополнительная информация: 

Найти трансфер

С помощью этой формы Вы можете найти трансфер из аэропорта Кучка в город, аэропорт или вокзал:

Карта места

Javascript is required to view this map.

Погода в аэропортах:

Авиационная погода в Вардё

Регион: 
Погода METAR: 
ENSS 261750Z 35027KT 9999 6000NW -SHRA SCT014 BKN020 01/M02 Q1001 RMK WIND 500FT 35036KT
Время наблюдения
2021-02-26T17:50:00Z
Температура C
1.0
Точка росы
-2.0
Направление ветра
350
Скорость ветра (узлы)
27
Метео видимость
6.21
Явления погоды
-SHRA
Условия полета
MVFR

Авиационная погода в Волгограде

Регион: 
Погода METAR: 
URWW 262030Z 25008MPS 0100 R24/0300N FG VV001 02/02 Q1011 R24/320045 NOSIG RMK QBB050 OBST OBSC
Время наблюдения
2021-02-26T20:30:00Z
Температура C
2.0
Точка росы
2.0
Направление ветра
250
Скорость ветра (узлы)
16
Метео видимость
0.06
Явления погоды
FG
Условия полета
LIFR
Аэропорт подробнее: 

Авиационная погода в Запорожье

Регион: 
Погода METAR: 
UKDE 262030Z 24003MPS 1900 1300S R20/P2000N BR NSC 04/03 Q1017 R20/210360 NOSIG
Время наблюдения
2021-02-26T20:30:00Z
Температура C
4.0
Точка росы
3.0
Направление ветра
240
Скорость ветра (узлы)
6
Метео видимость
1.18
Явления погоды
BR
Условия полета
IFR
Аэропорт подробнее: 

Авиационная погода в Алматы

Регион: 
Погода METAR: 
UAAA 262030Z 26002MPS 3000 BR FU SCT100 BKN200 M13/M17 Q1026 R23R/CLRD65 R23L/91//60 NOSIG
Время наблюдения
2021-02-26T20:30:00Z
Температура C
-13.0
Точка росы
-17.0
Направление ветра
260
Скорость ветра (узлы)
4
Метео видимость
1.86
Явления погоды
BR FU
Условия полета
IFR
Аэропорт подробнее: